createdAt,value
2023-03-11T00:00:20.352Z,99.99
2023-03-11T00:01:20.577Z,99.99
2023-03-11T00:02:20.652Z,99.99
2023-03-11T00:03:20.596Z,99.99
2023-03-11T00:04:20.573Z,99.99
2023-03-11T00:05:20.258Z,99.99
2023-03-11T00:06:20.606Z,99.99
2023-03-11T00:07:20.276Z,99.99
2023-03-11T00:08:20.202Z,99.99
2023-03-11T00:09:20.415Z,99.99
2023-03-11T00:10:20.185Z,99.99
2023-03-11T00:11:20.425Z,99.99
2023-03-11T00:12:20.154Z,99.99
2023-03-11T00:13:20.474Z,99.99
2023-03-11T00:14:20.219Z,99.99
2023-03-11T00:15:20.450Z,99.99
2023-03-11T00:16:20.693Z,99.99
2023-03-11T00:17:20.670Z,99.99
2023-03-11T00:18:20.692Z,99.99
2023-03-11T00:19:20.892Z,99.99
2023-03-11T00:20:20.092Z,99.99
2023-03-11T00:21:20.926Z,99.99
2023-03-11T00:22:20.271Z,99.99
2023-03-11T00:23:20.269Z,99.99
2023-03-11T00:24:20.490Z,99.99
2023-03-11T00:25:20.499Z,99.99
2023-03-11T00:26:20.300Z,99.99
2023-03-11T00:27:21.011Z,99.99
2023-03-11T00:28:20.308Z,99.99
2023-03-11T00:29:20.946Z,99.99
2023-03-11T00:30:20.936Z,99.99
2023-03-11T00:31:20.954Z,99.99
2023-03-11T00:32:20.792Z,99.99
2023-03-11T00:33:20.036Z,99.99
2023-03-11T00:34:20.006Z,99.99
2023-03-11T00:35:20.005Z,99.99
2023-03-11T00:36:20.011Z,99.99
2023-03-11T00:37:20.054Z,99.99
2023-03-11T00:38:20.213Z,99.99
2023-03-11T00:39:20.174Z,99.99
2023-03-11T00:40:20.198Z,99.99
2023-03-11T00:41:20.405Z,99.99
2023-03-11T00:42:20.195Z,99.99
2023-03-11T00:43:19.980Z,99.99
2023-03-11T00:44:19.961Z,99.99
2023-03-11T00:45:20.440Z,99.99
2023-03-11T00:46:19.961Z,99.99
2023-03-11T00:47:20.001Z,99.99
2023-03-11T00:48:20.229Z,99.99
2023-03-11T00:49:20.651Z,99.99
2023-03-11T00:50:20.668Z,99.99
2023-03-11T00:51:20.047Z,99.99
2023-03-11T00:52:19.910Z,99.99
2023-03-11T00:53:19.898Z,99.99
2023-03-11T00:54:20.277Z,99.99
2023-03-11T00:55:20.689Z,99.99
2023-03-11T00:56:20.289Z,99.99
2023-03-11T00:57:20.010Z,99.99
2023-03-11T00:58:20.505Z,99.99
2023-03-11T00:59:19.909Z,99.99
2023-03-11T01:00:19.942Z,99.99
2023-03-11T01:01:19.967Z,99.99
2023-03-11T01:02:19.927Z,99.99
2023-03-11T01:03:19.934Z,99.99
2023-03-11T01:04:20.198Z,99.99
2023-03-11T01:05:20.144Z,99.99
2023-03-11T01:06:20.160Z,99.99
2023-03-11T01:07:19.937Z,99.99
2023-03-11T01:08:20.379Z,99.99
2023-03-11T01:09:19.775Z,99.99
2023-03-11T01:10:19.784Z,99.99
2023-03-11T01:11:20.523Z,99.99
2023-03-11T01:12:19.773Z,99.99
2023-03-11T01:13:19.798Z,99.99
2023-03-11T01:14:19.813Z,99.99
2023-03-11T01:15:19.790Z,99.99
2023-03-11T01:16:20.034Z,99.99
2023-03-11T01:17:19.961Z,99.99
2023-03-11T01:18:20.019Z,99.99
2023-03-11T01:19:20.040Z,99.99
2023-03-11T01:20:20.240Z,99.99
2023-03-11T01:21:19.828Z,99.99
2023-03-11T01:22:20.052Z,99.99
2023-03-11T01:23:19.856Z,99.99
2023-03-11T01:24:19.880Z,99.99
2023-03-11T01:25:20.085Z,99.99
2023-03-11T01:26:19.677Z,99.99
2023-03-11T01:27:20.094Z,99.99
2023-03-11T01:28:20.001Z,99.99
2023-03-11T01:29:19.705Z,99.99
2023-03-11T01:30:20.715Z,99.99
2023-03-11T01:31:20.269Z,99.99
2023-03-11T01:32:20.358Z,99.99
2023-03-11T01:33:20.332Z,99.99
2023-03-11T01:34:20.485Z,99.99
2023-03-11T01:35:19.716Z,99.99
2023-03-11T01:36:20.137Z,99.99
2023-03-11T01:37:19.960Z,99.99
2023-03-11T01:38:20.612Z,99.99
2023-03-11T01:39:20.382Z,99.99
2023-03-11T01:40:19.583Z,99.99
2023-03-11T01:41:21.018Z,99.99
2023-03-11T01:42:20.478Z,99.99
2023-03-11T01:43:20.381Z,99.99
2023-03-11T01:44:19.618Z,99.99
2023-03-11T01:45:20.188Z,99.99
2023-03-11T01:46:19.605Z,99.99
2023-03-11T01:47:19.987Z,99.99
2023-03-11T01:48:19.597Z,99.99
2023-03-11T01:49:20.007Z,99.99
2023-03-11T01:50:19.525Z,99.99
2023-03-11T01:51:19.619Z,99.99
2023-03-11T01:52:19.625Z,99.99
2023-03-11T01:53:19.646Z,99.99
2023-03-11T01:54:19.643Z,99.99
2023-03-11T01:55:19.662Z,99.99
2023-03-11T01:56:19.663Z,99.99
2023-03-11T01:57:19.704Z,99.99
2023-03-11T01:58:19.662Z,99.99
2023-03-11T01:59:19.493Z,99.99
2023-03-11T02:00:19.895Z,99.99
2023-03-11T02:01:19.933Z,99.99
2023-03-11T02:02:19.499Z,99.99
2023-03-11T02:03:19.957Z,99.99
2023-03-11T02:04:20.130Z,99.99
2023-03-11T02:05:19.520Z,99.99
2023-03-11T02:06:19.906Z,99.99
2023-03-11T02:07:19.956Z,99.99
2023-03-11T02:08:20.149Z,99.99
2023-03-11T02:09:20.361Z,99.99
2023-03-11T02:10:19.390Z,99.99
2023-03-11T02:11:19.572Z,99.99
2023-03-11T02:12:19.382Z,99.99
2023-03-11T02:13:19.376Z,99.99
2023-03-11T02:14:19.391Z,99.99
2023-03-11T02:15:19.400Z,99.99
2023-03-11T02:16:19.445Z,99.99
2023-03-11T02:17:19.382Z,99.99
2023-03-11T02:18:19.436Z,99.99
2023-03-11T02:19:19.432Z,99.99
2023-03-11T02:20:19.441Z,99.99
2023-03-11T02:21:19.454Z,99.99
2023-03-11T02:22:19.624Z,99.99
2023-03-11T02:23:19.624Z,99.99
2023-03-11T02:24:19.643Z,99.99
2023-03-11T02:25:19.305Z,99.99
2023-03-11T02:26:19.301Z,99.99
2023-03-11T02:27:19.450Z,99.99
2023-03-11T02:28:19.451Z,99.99
2023-03-11T02:29:19.293Z,99.99
2023-03-11T02:30:19.475Z,99.99
2023-03-11T02:31:19.581Z,99.99
2023-03-11T02:32:19.536Z,99.99
2023-03-11T02:33:19.253Z,99.99
2023-03-11T02:34:19.722Z,99.99
2023-03-11T02:35:19.733Z,99.99
2023-03-11T02:36:19.241Z,99.99
2023-03-11T02:37:19.230Z,99.99
2023-03-11T02:38:19.311Z,99.99
2023-03-11T02:39:19.731Z,99.99
2023-03-11T02:40:19.711Z,99.99
2023-03-11T02:41:19.197Z,99.99
2023-03-11T02:42:19.199Z,99.99
2023-03-11T02:43:19.186Z,99.99
2023-03-11T02:44:19.221Z,99.99
2023-03-11T02:45:19.178Z,99.99
2023-03-11T02:46:19.289Z,99.99
2023-03-11T02:47:19.164Z,99.99
2023-03-11T02:48:19.254Z,99.99
2023-03-11T02:49:19.252Z,99.99
2023-03-11T02:50:19.299Z,99.99
2023-03-11T02:51:19.292Z,99.99
2023-03-11T02:52:19.190Z,99.99
2023-03-11T02:53:19.318Z,99.99
2023-03-11T02:54:19.120Z,99.99
2023-03-11T02:55:19.198Z,99.99
2023-03-11T02:56:19.156Z,99.99
2023-03-11T02:57:19.359Z,99.99
2023-03-11T02:58:19.385Z,99.99
2023-03-11T02:59:19.392Z,99.99
2023-03-11T03:00:19.396Z,99.99
2023-03-11T03:01:19.119Z,99.99
2023-03-11T03:02:19.115Z,99.99
2023-03-11T03:03:19.065Z,99.99
2023-03-11T03:04:19.183Z,99.99
2023-03-11T03:05:19.124Z,99.99
2023-03-11T03:06:19.285Z,99.99
2023-03-11T03:07:19.296Z,99.99
2023-03-11T03:08:19.022Z,99.99
2023-03-11T03:09:19.361Z,99.99
2023-03-11T03:10:19.355Z,99.99
2023-03-11T03:11:19.002Z,99.99
2023-03-11T03:12:18.993Z,99.99
2023-03-11T03:13:18.997Z,99.99
2023-03-11T03:14:19.129Z,99.99
2023-03-11T03:15:19.658Z,99.99
2023-03-11T03:16:19.064Z,99.99
2023-03-11T03:17:19.002Z,99.99
2023-03-11T03:18:18.967Z,99.99
2023-03-11T03:19:18.971Z,99.99
2023-03-11T03:20:19.651Z,99.99
2023-03-11T03:21:18.977Z,99.99
2023-03-11T03:22:19.003Z,99.99
2023-03-11T03:23:18.988Z,99.99
2023-03-11T03:24:19.004Z,99.99
2023-03-11T03:25:18.998Z,99.99
2023-03-11T03:26:18.914Z,99.99
2023-03-11T03:27:19.015Z,99.99
2023-03-11T03:28:20.381Z,99.99
2023-03-11T03:29:19.020Z,99.99
2023-03-11T03:30:18.927Z,99.99
2023-03-11T03:31:19.106Z,99.99
2023-03-11T03:32:18.919Z,99.99
2023-03-11T03:33:18.864Z,99.99
2023-03-11T03:34:18.867Z,99.99
2023-03-11T03:35:18.891Z,99.99
2023-03-11T03:36:18.867Z,99.99
2023-03-11T03:37:18.864Z,99.99
2023-03-11T03:38:18.953Z,99.99
2023-03-11T03:39:19.105Z,99.99
2023-03-11T03:40:19.065Z,99.99
2023-03-11T03:41:18.900Z,99.99
2023-03-11T03:42:18.901Z,99.99
2023-03-11T03:43:18.916Z,99.99
2023-03-11T03:44:18.913Z,99.99
2023-03-11T03:45:18.923Z,99.99
2023-03-11T03:46:19.045Z,99.99
2023-03-11T03:47:19.004Z,99.99
2023-03-11T03:48:19.020Z,99.99
2023-03-11T03:49:19.163Z,99.99
2023-03-11T03:50:19.124Z,99.99
2023-03-11T03:51:19.179Z,99.99
2023-03-11T03:52:19.263Z,99.99
2023-03-11T03:53:18.972Z,99.99
2023-03-11T03:54:19.266Z,99.99
2023-03-11T03:55:19.287Z,99.99
2023-03-11T03:56:19.277Z,99.99
2023-03-11T03:57:18.723Z,99.99
2023-03-11T03:58:18.904Z,99.99
2023-03-11T03:59:18.726Z,99.99
2023-03-11T04:00:18.717Z,99.99
2023-03-11T04:01:18.704Z,99.99
2023-03-11T04:02:18.773Z,99.99
2023-03-11T04:03:18.768Z,99.99
2023-03-11T04:04:18.727Z,99.99
2023-03-11T04:05:18.674Z,99.99
2023-03-11T04:06:18.802Z,99.99
2023-03-11T04:07:18.746Z,99.99
2023-03-11T04:08:18.886Z,99.99
2023-03-11T04:09:18.749Z,99.99
2023-03-11T04:10:18.740Z,99.99
2023-03-11T04:11:18.683Z,99.99
2023-03-11T04:12:18.787Z,99.99
2023-03-11T04:13:18.780Z,99.99
2023-03-11T04:14:18.793Z,99.99
2023-03-11T04:15:18.602Z,99.99
2023-03-11T04:16:19.036Z,99.99
2023-03-11T04:17:18.598Z,99.99
2023-03-11T04:18:18.939Z,99.99
2023-03-11T04:19:18.616Z,99.99
2023-03-11T04:20:18.816Z,99.99
2023-03-11T04:21:18.611Z,99.99
2023-03-11T04:22:18.646Z,99.99
2023-03-11T04:23:18.557Z,99.99
2023-03-11T04:24:18.646Z,99.99
2023-03-11T04:25:18.779Z,99.99
2023-03-11T04:26:18.586Z,99.99
2023-03-11T04:27:18.595Z,99.99
2023-03-11T04:28:18.613Z,99.99
2023-03-11T04:29:18.605Z,99.99
2023-03-11T04:30:18.616Z,99.99
2023-03-11T04:31:18.755Z,99.99
2023-03-11T04:32:18.860Z,99.99
2023-03-11T04:33:18.831Z,99.99
2023-03-11T04:34:18.866Z,99.99
2023-03-11T04:35:18.948Z,99.99
2023-03-11T04:36:18.947Z,99.99
2023-03-11T04:37:18.615Z,99.99
2023-03-11T04:38:19.076Z,99.99
2023-03-11T04:39:19.008Z,99.99
2023-03-11T04:40:19.114Z,99.99
2023-03-11T04:41:18.464Z,99.99
2023-03-11T04:42:18.674Z,99.99
2023-03-11T04:43:19.219Z,99.99
2023-03-11T04:44:19.210Z,99.99
2023-03-11T04:45:18.585Z,99.99
2023-03-11T04:46:18.871Z,99.99
2023-03-11T04:47:19.246Z,99.99
2023-03-11T04:48:18.409Z,99.99
2023-03-11T04:49:19.231Z,99.99
2023-03-11T04:50:18.670Z,99.99
2023-03-11T04:51:19.244Z,99.99
2023-03-11T04:52:18.457Z,99.99
2023-03-11T04:53:18.601Z,99.99
2023-03-11T04:54:18.809Z,99.99
2023-03-11T04:55:19.366Z,99.99
2023-03-11T04:56:18.358Z,99.99
2023-03-11T04:57:18.368Z,99.99
2023-03-11T04:58:18.332Z,99.99
2023-03-11T04:59:18.374Z,99.99
2023-03-11T05:00:18.367Z,99.99
2023-03-11T05:01:18.529Z,99.99
2023-03-11T05:02:18.337Z,99.99
2023-03-11T05:03:18.359Z,99.99
2023-03-11T05:04:18.657Z,99.99
2023-03-11T05:05:18.626Z,99.99
2023-03-11T05:06:18.730Z,99.99
2023-03-11T05:07:18.744Z,99.99
2023-03-11T05:08:18.332Z,99.99
2023-03-11T05:09:18.548Z,99.99
2023-03-11T05:10:18.823Z,99.99
2023-03-11T05:11:18.976Z,99.99
2023-03-11T05:12:18.874Z,99.99
2023-03-11T05:13:18.267Z,99.99
2023-03-11T05:14:19.085Z,99.99
2023-03-11T05:15:18.790Z,99.99
2023-03-11T05:16:18.870Z,99.99
2023-03-11T05:17:18.907Z,99.99
2023-03-11T05:18:19.216Z,99.99
2023-03-11T05:19:18.211Z,99.99
2023-03-11T05:20:18.213Z,99.99
2023-03-11T05:21:18.221Z,99.99
2023-03-11T05:22:18.231Z,99.99
2023-03-11T05:23:18.244Z,99.99
2023-03-11T05:24:18.345Z,99.99
2023-03-11T05:25:18.170Z,99.99
2023-03-11T05:26:18.366Z,99.99
2023-03-11T05:27:18.477Z,99.99
2023-03-11T05:28:18.368Z,99.99
2023-03-11T05:29:18.598Z,99.99
2023-03-11T05:30:18.539Z,99.99
2023-03-11T05:31:18.782Z,99.99
2023-03-11T05:32:18.224Z,99.99
2023-03-11T05:33:18.109Z,99.99
2023-03-11T05:34:18.118Z,99.99
2023-03-11T05:35:18.106Z,99.99
2023-03-11T05:36:18.121Z,99.99
2023-03-11T05:37:18.123Z,99.99
2023-03-11T05:38:18.132Z,99.99
2023-03-11T05:39:18.139Z,99.99
2023-03-11T05:40:18.184Z,99.99
2023-03-11T05:41:18.358Z,99.99
2023-03-11T05:42:20.261Z,99.99
2023-03-11T05:43:18.482Z,99.99
2023-03-11T05:44:18.397Z,99.99
2023-03-11T05:45:18.588Z,99.99
2023-03-11T05:46:18.616Z,99.99
2023-03-11T05:47:18.075Z,99.99
2023-03-11T05:48:18.698Z,99.99
2023-03-11T05:49:18.560Z,99.99
2023-03-11T05:50:18.765Z,99.99
2023-03-11T05:51:18.429Z,99.99
2023-03-11T05:52:18.524Z,99.99
2023-03-11T05:53:18.919Z,99.99
2023-03-11T05:54:18.755Z,99.99
2023-03-11T05:55:18.750Z,99.99
2023-03-11T05:56:18.888Z,99.99
2023-03-11T05:57:18.794Z,99.99
2023-03-11T05:58:18.027Z,99.99
2023-03-11T05:59:18.082Z,99.99
2023-03-11T06:00:19.013Z,99.99
2023-03-11T06:01:17.952Z,99.99
2023-03-11T06:02:18.384Z,99.99
2023-03-11T06:03:18.720Z,99.99
2023-03-11T06:04:17.974Z,99.99
2023-03-11T06:05:18.880Z,99.99
2023-03-11T06:06:18.952Z,99.99
2023-03-11T06:07:18.021Z,99.99
2023-03-11T06:08:18.330Z,99.99
2023-03-11T06:09:18.927Z,99.99
2023-03-11T06:10:18.823Z,99.99
2023-03-11T06:11:17.946Z,99.99
2023-03-11T06:12:17.867Z,99.99
2023-03-11T06:13:17.901Z,99.99
2023-03-11T06:14:17.959Z,99.99
2023-03-11T06:15:17.861Z,99.99
2023-03-11T06:16:17.920Z,99.99
2023-03-11T06:17:17.857Z,99.99
2023-03-11T06:18:17.883Z,99.99
2023-03-11T06:19:17.829Z,99.99
2023-03-11T06:20:18.154Z,99.99
2023-03-11T06:21:17.894Z,99.99
2023-03-11T06:22:18.014Z,99.99
2023-03-11T06:23:17.913Z,99.99
2023-03-11T06:24:18.034Z,99.99
2023-03-11T06:25:17.832Z,99.99
2023-03-11T06:26:18.052Z,99.99
2023-03-11T06:27:18.060Z,99.99
2023-03-11T06:28:18.102Z,99.99
2023-03-11T06:29:17.767Z,99.99
2023-03-11T06:30:17.759Z,99.99
2023-03-11T06:31:17.772Z,99.99
2023-03-11T06:32:17.773Z,99.99
2023-03-11T06:33:17.778Z,99.99
2023-03-11T06:34:17.719Z,99.99
2023-03-11T06:35:17.719Z,99.99
2023-03-11T06:36:17.711Z,99.99
2023-03-11T06:37:17.788Z,99.99
2023-03-11T06:38:17.888Z,99.99
2023-03-11T06:39:17.702Z,99.99
2023-03-11T06:40:17.689Z,99.99
2023-03-11T06:41:17.816Z,99.99
2023-03-11T06:42:17.825Z,99.99
2023-03-11T06:43:17.830Z,99.99
2023-03-11T06:44:17.826Z,99.99
2023-03-11T06:45:20.476Z,99.99
2023-03-11T06:46:17.875Z,99.99
2023-03-11T06:47:19.195Z,99.99
2023-03-11T06:48:17.895Z,99.99
2023-03-11T06:49:17.875Z,99.99
2023-03-11T06:50:17.631Z,99.99
2023-03-11T06:51:17.722Z,99.99
2023-03-11T06:52:17.825Z,99.99
2023-03-11T06:53:17.826Z,99.99
2023-03-11T06:54:17.602Z,99.99
2023-03-11T06:55:17.601Z,99.99
2023-03-11T06:56:17.700Z,99.99
2023-03-11T06:57:17.860Z,99.99
2023-03-11T06:58:18.067Z,99.99
2023-03-11T06:59:17.561Z,99.99
2023-03-11T07:00:17.579Z,99.99
2023-03-11T07:01:17.616Z,99.99
2023-03-11T07:02:17.761Z,99.99
2023-03-11T07:03:17.561Z,99.99
2023-03-11T07:04:17.593Z,99.99
2023-03-11T07:05:17.537Z,99.99
2023-03-11T07:06:17.517Z,99.99
2023-03-11T07:07:17.535Z,99.99
2023-03-11T07:08:17.540Z,99.99
2023-03-11T07:09:17.549Z,99.99
2023-03-11T07:10:17.560Z,99.99
2023-03-11T07:11:17.774Z,99.99
2023-03-11T07:12:17.547Z,99.99
2023-03-11T07:13:17.984Z,99.99
2023-03-11T07:14:17.474Z,99.99
2023-03-11T07:15:17.728Z,99.99
2023-03-11T07:16:18.132Z,99.37
2023-03-11T07:17:17.772Z,98.95
2023-03-11T07:18:17.685Z,98.85
2023-03-11T07:19:17.800Z,98.85
2023-03-11T07:20:17.807Z,98.85
2023-03-11T07:21:17.429Z,98.69
2023-03-11T07:22:17.880Z,98.69
2023-03-11T07:23:18.177Z,98.69
2023-03-11T07:24:17.809Z,98.90
2023-03-11T07:25:17.773Z,98.90
2023-03-11T07:26:17.398Z,98.90
2023-03-11T07:27:17.758Z,98.90
2023-03-11T07:28:17.637Z,98.18
2023-03-11T07:29:17.453Z,98.18
2023-03-11T07:30:18.197Z,98.59
2023-03-11T07:31:17.543Z,98.96
2023-03-11T07:32:17.892Z,98.59
2023-03-11T07:33:17.480Z,98.59
2023-03-11T07:34:17.666Z,99.11
2023-03-11T07:35:17.803Z,99.11
2023-03-11T07:36:18.505Z,98.80
2023-03-11T07:37:17.920Z,98.59
2023-03-11T07:38:17.925Z,98.49
2023-03-11T07:39:17.734Z,98.80
2023-03-11T07:40:17.551Z,98.18
2023-03-11T07:41:18.418Z,98.18
2023-03-11T07:42:17.988Z,97.75
2023-03-11T07:43:18.828Z,97.13
2023-03-11T07:44:17.356Z,97.24
2023-03-11T07:45:17.767Z,96.61
2023-03-11T07:46:18.073Z,96.71
2023-03-11T07:47:18.324Z,96.30
2023-03-11T07:48:17.257Z,96.30
2023-03-11T07:49:17.381Z,95.98
2023-03-11T07:50:17.638Z,96.09
2023-03-11T07:51:17.464Z,96.46
2023-03-11T07:52:17.808Z,96.30
2023-03-11T07:53:17.251Z,95.36
2023-03-11T07:54:17.227Z,95.42
2023-03-11T07:55:17.273Z,95.88
2023-03-11T07:56:17.805Z,95.62
2023-03-11T07:57:17.311Z,95.15
2023-03-11T07:58:17.258Z,95.42
2023-03-11T07:59:17.462Z,95.42
2023-03-11T08:00:18.077Z,95.52
2023-03-11T08:01:18.081Z,96.04
2023-03-11T08:02:17.207Z,95.68
2023-03-11T08:03:17.244Z,95.27
2023-03-11T08:04:17.294Z,94.33
2023-03-11T08:05:17.290Z,93.50
2023-03-11T08:06:17.313Z,93.91
2023-03-11T08:07:17.302Z,94.39
2023-03-11T08:08:17.140Z,94.08
2023-03-11T08:09:17.141Z,92.77
2023-03-11T08:10:17.148Z,92.35
2023-03-11T08:11:17.154Z,92.62
2023-03-11T08:12:17.129Z,91.89
2023-03-11T08:13:17.139Z,91.78
2023-03-11T08:14:17.139Z,92.72
2023-03-11T08:15:17.150Z,92.83
2023-03-11T08:16:17.092Z,92.31
2023-03-11T08:17:17.098Z,91.37
2023-03-11T08:18:17.223Z,91.64
2023-03-11T08:19:17.080Z,90.91
2023-03-11T08:20:17.188Z,91.12
2023-03-11T08:21:17.046Z,91.02
2023-03-11T08:22:17.047Z,91.43
2023-03-11T08:23:17.165Z,90.70
2023-03-11T08:24:17.048Z,90.14
2023-03-11T08:25:17.059Z,89.73
2023-03-11T08:26:17.071Z,90.14
2023-03-11T08:27:17.257Z,89.62
2023-03-11T08:28:17.002Z,88.79
2023-03-11T08:29:17.264Z,89.04
2023-03-11T08:30:17.057Z,89.45
2023-03-11T08:31:17.301Z,88.58
2023-03-11T08:32:16.988Z,88.17
2023-03-11T08:33:16.973Z,88.37
2023-03-11T08:34:17.084Z,87.27
2023-03-11T08:35:17.095Z,87.16
2023-03-11T08:36:16.944Z,88.06
2023-03-11T08:37:17.316Z,88.68
2023-03-11T08:38:16.934Z,87.54
2023-03-11T08:39:16.989Z,87.54
2023-03-11T08:40:16.950Z,87.75
2023-03-11T08:41:16.921Z,87.75
2023-03-11T08:42:16.910Z,87.96
2023-03-11T08:43:16.972Z,87.54
2023-03-11T08:44:16.903Z,87.81
2023-03-11T08:45:17.100Z,88.23
2023-03-11T08:46:17.180Z,88.23
2023-03-11T08:47:16.884Z,88.71
2023-03-11T08:48:17.178Z,86.35
2023-03-11T08:49:17.419Z,86.57
2023-03-11T08:50:16.947Z,85.94
2023-03-11T08:51:16.856Z,84.69
2023-03-11T08:52:16.848Z,86.32
2023-03-11T08:53:16.836Z,85.69
2023-03-11T08:54:16.833Z,84.23
2023-03-11T08:55:17.035Z,84.13
2023-03-11T08:56:16.849Z,84.96
2023-03-11T08:57:16.825Z,85.83
2023-03-11T08:58:17.475Z,86.21
2023-03-11T08:59:17.270Z,84.86
2023-03-11T09:00:17.665Z,84.80
2023-03-11T09:01:17.691Z,85.06
2023-03-11T09:02:16.799Z,84.03
2023-03-11T09:03:17.084Z,82.46
2023-03-11T09:04:17.084Z,83.51
2023-03-11T09:05:17.633Z,83.61
2023-03-11T09:06:16.905Z,84.13
2023-03-11T09:07:16.761Z,83.92
2023-03-11T09:08:16.926Z,84.20
2023-03-11T09:09:16.747Z,83.82
2023-03-11T09:10:16.733Z,83.09
2023-03-11T09:11:16.748Z,82.99
2023-03-11T09:12:16.938Z,82.05
2023-03-11T09:13:17.152Z,84.61
2023-03-11T09:14:16.955Z,84.20
2023-03-11T09:15:16.764Z,85.03
2023-03-11T09:16:17.235Z,83.22
2023-03-11T09:17:17.399Z,82.91
2023-03-11T09:18:16.773Z,81.25
2023-03-11T09:19:16.676Z,81.87
2023-03-11T09:20:16.661Z,82.53
2023-03-11T09:21:16.789Z,81.67
2023-03-11T09:22:16.828Z,81.56
2023-03-11T09:23:17.006Z,81.67
2023-03-11T09:24:16.666Z,82.39
2023-03-11T09:25:16.628Z,85.53
2023-03-11T09:26:17.065Z,88.84
2023-03-11T09:27:16.637Z,83.26
2023-03-11T09:28:17.238Z,78.12
2023-03-11T09:29:16.844Z,79.99
2023-03-11T09:30:16.840Z,82.65
2023-03-11T09:31:17.143Z,82.19
2023-03-11T09:32:17.290Z,78.64
2023-03-11T09:33:17.476Z,73.29
2023-03-11T09:34:17.409Z,74.02
2023-03-11T09:35:16.876Z,77.12
2023-03-11T09:36:17.517Z,76.88
2023-03-11T09:37:17.236Z,75.05
2023-03-11T09:38:16.555Z,76.84
2023-03-11T09:39:16.545Z,75.91
2023-03-11T09:40:16.544Z,73.57
2023-03-11T09:41:16.534Z,74.02
2023-03-11T09:42:16.946Z,72.71
2023-03-11T09:43:16.770Z,73.25
2023-03-11T09:44:16.846Z,72.39
2023-03-11T09:45:16.536Z,71.14
2023-03-11T09:46:16.869Z,73.39
2023-03-11T09:47:16.577Z,75.50
2023-03-11T09:48:16.569Z,77.16
2023-03-11T09:49:16.485Z,76.54
2023-03-11T09:50:16.593Z,76.33
2023-03-11T09:51:16.793Z,77.26
2023-03-11T09:52:17.001Z,78.34
2023-03-11T09:53:16.791Z,76.68
2023-03-11T09:54:16.451Z,78.13
2023-03-11T09:55:16.440Z,79.55
2023-03-11T09:56:16.441Z,81.38
2023-03-11T09:57:16.457Z,79.58
2023-03-11T09:58:16.639Z,78.51
2023-03-11T09:59:16.647Z,76.43
2023-03-11T10:00:16.661Z,74.57
2023-03-11T10:01:16.672Z,72.28
2023-03-11T10:02:16.956Z,73.84
2023-03-11T10:03:16.543Z,76.85
2023-03-11T10:04:16.498Z,75.92
2023-03-11T10:05:16.388Z,74.67
2023-03-11T10:06:16.500Z,71.77
2023-03-11T10:07:16.506Z,73.60
2023-03-11T10:08:16.716Z,73.91
2023-03-11T10:09:16.506Z,72.60
2023-03-11T10:10:16.725Z,72.74
2023-03-11T10:11:16.735Z,73.28
2023-03-11T10:12:16.735Z,73.80
2023-03-11T10:13:16.763Z,75.88
2023-03-11T10:14:16.323Z,72.69
2023-03-11T10:15:16.561Z,74.26
2023-03-11T10:16:16.388Z,74.80
2023-03-11T10:17:16.972Z,76.99
2023-03-11T10:18:16.998Z,80.73
2023-03-11T10:19:16.385Z,78.13
2023-03-11T10:20:16.379Z,76.68
2023-03-11T10:21:16.591Z,78.03
2023-03-11T10:22:16.282Z,79.38
2023-03-11T10:23:16.601Z,79.34
2023-03-11T10:24:16.641Z,77.99
2023-03-11T10:25:16.633Z,79.03
2023-03-11T10:26:17.140Z,78.41
2023-03-11T10:27:16.257Z,76.85
2023-03-11T10:28:16.240Z,77.26
2023-03-11T10:29:16.504Z,75.19
2023-03-11T10:30:16.430Z,75.74
2023-03-11T10:31:16.326Z,77.82
2023-03-11T10:32:16.400Z,80.04
2023-03-11T10:33:16.190Z,80.56
2023-03-11T10:34:16.182Z,77.44
2023-03-11T10:35:16.211Z,77.44
2023-03-11T10:36:16.180Z,78.13
2023-03-11T10:37:16.186Z,81.84
2023-03-11T10:38:16.164Z,81.01
2023-03-11T10:39:16.160Z,77.02
2023-03-11T10:40:16.159Z,75.12
2023-03-11T10:41:16.165Z,72.46
2023-03-11T10:42:16.151Z,73.88
2023-03-11T10:43:16.129Z,75.05
2023-03-11T10:44:16.878Z,70.05
2023-03-11T10:45:16.107Z,68.08
2023-03-11T10:46:16.391Z,67.77
2023-03-11T10:47:16.957Z,69.56
2023-03-11T10:48:16.770Z,68.38
2023-03-11T10:49:16.093Z,69.24
2023-03-11T10:50:16.096Z,69.59
2023-03-11T10:51:16.074Z,71.25
2023-03-11T10:52:16.287Z,72.28
2023-03-11T10:53:16.173Z,72.36
2023-03-11T10:54:16.109Z,73.70
2023-03-11T10:55:16.042Z,72.91
2023-03-11T10:56:16.156Z,71.77
2023-03-11T10:57:16.062Z,71.80
2023-03-11T10:58:16.049Z,72.84
2023-03-11T10:59:16.076Z,71.35
2023-03-11T11:00:16.014Z,70.59
2023-03-11T11:01:16.076Z,70.07
2023-03-11T11:02:16.023Z,70.01
2023-03-11T11:03:15.992Z,69.76
2023-03-11T11:04:16.002Z,70.62
2023-03-11T11:05:15.974Z,72.63
2023-03-11T11:06:15.974Z,71.83
2023-03-11T11:07:16.056Z,73.60
2023-03-11T11:08:15.997Z,73.60
2023-03-11T11:09:15.954Z,71.08
2023-03-11T11:10:15.991Z,71.66
2023-03-11T11:11:16.300Z,70.59
2023-03-11T11:12:15.986Z,69.69
2023-03-11T11:13:15.926Z,70.35
2023-03-11T11:14:16.020Z,72.80
2023-03-11T11:15:16.113Z,71.25
2023-03-11T11:16:16.159Z,72.22
2023-03-11T11:17:15.982Z,70.26
2023-03-11T11:18:15.902Z,67.39
2023-03-11T11:19:16.156Z,68.12
2023-03-11T11:20:15.881Z,68.28
2023-03-11T11:21:15.879Z,70.49
2023-03-11T11:22:15.882Z,71.97
2023-03-11T11:23:15.862Z,73.11
2023-03-11T11:24:15.893Z,74.50
2023-03-11T11:25:15.969Z,76.37
2023-03-11T11:26:15.852Z,74.29
2023-03-11T11:27:16.045Z,73.36
2023-03-11T11:28:15.832Z,76.43
2023-03-11T11:29:15.816Z,74.53
2023-03-11T11:30:15.837Z,72.63
2023-03-11T11:31:15.872Z,70.87
2023-03-11T11:32:15.835Z,69.80
2023-03-11T11:33:15.799Z,68.40
2023-03-11T11:34:15.804Z,65.26
2023-03-11T11:35:15.868Z,65.85
2023-03-11T11:36:15.788Z,65.27
2023-03-11T11:37:16.127Z,63.82
2023-03-11T11:38:15.774Z,63.39
2023-03-11T11:39:15.745Z,61.63
2023-03-11T11:40:15.993Z,61.80
2023-03-11T11:41:15.737Z,62.25
2023-03-11T11:42:15.760Z,62.12
2023-03-11T11:43:15.740Z,64.04
2023-03-11T11:44:15.734Z,64.40
2023-03-11T11:45:16.046Z,62.44
2023-03-11T11:46:16.137Z,63.65
2023-03-11T11:47:16.186Z,61.49
2023-03-11T11:48:15.927Z,62.10
2023-03-11T11:49:15.682Z,62.18
2023-03-11T11:50:15.724Z,60.74
2023-03-11T11:51:17.120Z,59.74
2023-03-11T11:52:15.682Z,59.45
2023-03-11T11:53:15.651Z,60.51
2023-03-11T11:54:15.660Z,61.57
2023-03-11T11:55:15.669Z,65.11
2023-03-11T11:56:15.648Z,65.34
2023-03-11T11:57:15.645Z,67.58
2023-03-11T11:58:15.662Z,65.21
2023-03-11T11:59:15.718Z,66.58
2023-03-11T12:00:15.668Z,65.79
2023-03-11T12:01:15.603Z,65.75
2023-03-11T12:02:15.596Z,67.95
2023-03-11T12:03:15.645Z,68.46
2023-03-11T12:04:15.591Z,68.40
2023-03-11T12:05:15.583Z,69.53
2023-03-11T12:06:15.568Z,69.22
2023-03-11T12:07:15.561Z,68.94
2023-03-11T12:08:15.581Z,68.04
2023-03-11T12:09:15.695Z,67.43
2023-03-11T12:10:22.923Z,67.58
2023-03-11T12:11:15.534Z,67.48
2023-03-11T12:12:15.545Z,65.88
2023-03-11T12:13:15.525Z,63.43
2023-03-11T12:14:16.095Z,62.40
2023-03-11T12:15:15.494Z,64.36
2023-03-11T12:16:16.123Z,65.53
2023-03-11T12:17:15.495Z,64.89
2023-03-11T12:18:15.517Z,61.77
2023-03-11T12:19:15.500Z,60.43
2023-03-11T12:20:15.531Z,60.66
2023-03-11T12:21:15.462Z,60.44
2023-03-11T12:22:15.488Z,62.35
2023-03-11T12:23:15.589Z,65.37
2023-03-11T12:24:15.473Z,64.58
2023-03-11T12:25:15.433Z,62.65
2023-03-11T12:26:16.259Z,63.53
2023-03-11T12:27:15.425Z,64.46
2023-03-11T12:28:15.457Z,65.08
2023-03-11T12:29:16.184Z,68.49
2023-03-11T12:30:15.411Z,69.81
2023-03-11T12:31:15.413Z,70.19
2023-03-11T12:32:15.399Z,68.30
2023-03-11T12:33:15.542Z,66.44
2023-03-11T12:34:15.383Z,66.61
2023-03-11T12:35:15.384Z,62.82
2023-03-11T12:36:15.386Z,64.17
2023-03-11T12:37:15.358Z,62.51
2023-03-11T12:38:15.375Z,62.82
2023-03-11T12:39:15.341Z,63.13
2023-03-11T12:40:15.340Z,63.26
2023-03-11T12:41:15.350Z,61.10
2023-03-11T12:42:15.324Z,64.27
2023-03-11T12:43:15.405Z,63.54
2023-03-11T12:44:15.346Z,63.51
2023-03-11T12:45:15.297Z,63.62
2023-03-11T12:46:15.325Z,63.42
2023-03-11T12:47:15.281Z,65.27
2023-03-11T12:48:15.292Z,59.46
2023-03-11T12:49:15.282Z,62.59
2023-03-11T12:50:15.285Z,62.17
2023-03-11T12:51:15.266Z,62.90
2023-03-11T12:52:15.288Z,61.14